sensor_id;sensor_type;location;lat;lon;timestamp;pressure;altitude;pressure_sealevel;temperature;humidity
56392;BME280;76123;53.584;9.978;2024-02-14T00:00:52;101628.84;;;5.19;77.05
56392;BME280;76123;53.584;9.978;2024-02-14T00:03:19;101625.38;;;5.15;76.67
56392;BME280;76123;53.584;9.978;2024-02-14T00:05:46;101617.53;;;5.15;76.33
56392;BME280;76123;53.584;9.978;2024-02-14T00:08:13;101618.47;;;5.13;76.67
56392;BME280;76123;53.584;9.978;2024-02-14T00:10:40;101628.13;;;5.09;76.54
56392;BME280;76123;53.584;9.978;2024-02-14T00:13:08;101614.94;;;5.12;77.02
56392;BME280;76123;53.584;9.978;2024-02-14T00:15:37;101623.66;;;5.16;76.22
56392;BME280;76123;53.584;9.978;2024-02-14T00:18:04;101621.91;;;5.15;76.58
56392;BME280;76123;53.584;9.978;2024-02-14T00:20:31;101614.06;;;5.13;76.60
56392;BME280;76123;53.584;9.978;2024-02-14T00:22:57;101614.06;;;5.13;76.26
56392;BME280;76123;53.584;9.978;2024-02-14T00:25:24;101615.81;;;5.14;76.55
56392;BME280;76123;53.584;9.978;2024-02-14T00:27:50;101615.81;;;5.14;76.76
56392;BME280;76123;53.584;9.978;2024-02-14T00:30:17;101607.06;;;5.14;76.16
56392;BME280;76123;53.584;9.978;2024-02-14T00:32:45;101618.47;;;5.13;76.27
56392;BME280;76123;53.584;9.978;2024-02-14T00:35:12;101613.22;;;5.11;76.11
56392;BME280;76123;53.584;9.978;2024-02-14T00:37:39;101609.75;;;5.09;76.01
56392;BME280;76123;53.584;9.978;2024-02-14T00:40:07;101605.38;;;5.08;76.74
56392;BME280;76123;53.584;9.978;2024-02-14T00:42:34;101604.59;;;5.04;75.90
56392;BME280;76123;53.584;9.978;2024-02-14T00:45:00;101595.00;;;5.02;76.35
56392;BME280;76123;53.584;9.978;2024-02-14T00:47:28;101584.50;;;5.02;76.40
56392;BME280;76123;53.584;9.978;2024-02-14T00:49:56;101595.84;;;5.04;75.81
56392;BME280;76123;53.584;9.978;2024-02-14T00:52:23;101589.72;;;5.03;76.26
56392;BME280;76123;53.584;9.978;2024-02-14T00:54:49;101599.31;;;5.06;76.89
56392;BME280;76123;53.584;9.978;2024-02-14T00:57:16;101591.41;;;5.08;76.19
56392;BME280;76123;53.584;9.978;2024-02-14T00:59:44;101596.63;;;5.09;76.59
56392;BME280;76123;53.584;9.978;2024-02-14T01:02:11;101586.19;;;5.08;75.79
56392;BME280;76123;53.584;9.978;2024-02-14T01:04:38;101591.41;;;5.09;75.78
56392;BME280;76123;53.584;9.978;2024-02-14T01:07:06;101590.47;;;5.12;76.63
56392;BME280;76123;53.584;9.978;2024-02-14T01:09:33;101590.44;;;5.15;76.80
56392;BME280;76123;53.584;9.978;2024-02-14T01:12:01;101588.63;;;5.17;77.29
56392;BME280;76123;53.584;9.978;2024-02-14T01:14:28;101585.19;;;5.15;77.17
56392;BME280;76123;53.584;9.978;2024-02-14T01:16:55;101584.31;;;5.16;77.82
56392;BME280;76123;53.584;9.978;2024-02-14T01:19:22;101587.72;;;5.19;78.67
56392;BME280;76123;53.584;9.978;2024-02-14T01:21:49;101586.00;;;5.17;78.58
56392;BME280;76123;53.584;9.978;2024-02-14T01:24:17;101582.59;;;5.13;78.37
56392;BME280;76123;53.584;9.978;2024-02-14T01:26:44;101583.41;;;5.15;78.98
56392;BME280;76123;53.584;9.978;2024-02-14T01:29:10;101575.72;;;5.06;79.80
56392;BME280;76123;53.584;9.978;2024-02-14T01:31:37;101575.72;;;5.06;81.27
56392;BME280;76123;53.584;9.978;2024-02-14T01:34:04;101571.44;;;4.99;81.31
56392;BME280;76123;53.584;9.978;2024-02-14T01:36:30;101564.53;;;4.95;83.47
56392;BME280;76123;53.584;9.978;2024-02-14T01:38:57;101558.47;;;4.91;85.06
56392;BME280;76123;53.584;9.978;2024-02-14T01:41:25;101562.88;;;4.87;84.99
56392;BME280;76123;53.584;9.978;2024-02-14T01:43:51;101558.53;;;4.85;86.76
56392;BME280;76123;53.584;9.978;2024-02-14T01:46:18;101555.22;;;4.74;85.96
56392;BME280;76123;53.584;9.978;2024-02-14T01:48:45;101552.66;;;4.69;86.67
56392;BME280;76123;53.584;9.978;2024-02-14T01:51:13;101550.06;;;4.67;87.09
56392;BME280;76123;53.584;9.978;2024-02-14T01:53:42;101554.47;;;4.67;87.78
56392;BME280;76123;53.584;9.978;2024-02-14T01:56:09;101541.44;;;4.61;87.52
56392;BME280;76123;53.584;9.978;2024-02-14T01:58:37;101547.66;;;4.55;87.24
56392;BME280;76123;53.584;9.978;2024-02-14T02:01:04;101549.34;;;4.56;88.78
56392;BME280;76123;53.584;9.978;2024-02-14T02:03:32;101547.78;;;4.44;88.72
56392;BME280;76123;53.584;9.978;2024-02-14T02:06:01;101541.72;;;4.42;89.73
56392;BME280;76123;53.584;9.978;2024-02-14T02:08:28;101537.28;;;4.46;90.87
56392;BME280;76123;53.584;9.978;2024-02-14T02:10:55;101534.78;;;4.38;90.31
56392;BME280;76123;53.584;9.978;2024-02-14T02:13:21;101538.16;;;4.45;91.59
56392;BME280;76123;53.584;9.978;2024-02-14T02:15:49;101538.25;;;4.39;90.35
56392;BME280;76123;53.584;9.978;2024-02-14T02:18:17;101529.56;;;4.37;90.88
56392;BME280;76123;53.584;9.978;2024-02-14T02:20:44;101529.53;;;4.38;91.06
56392;BME280;76123;53.584;9.978;2024-02-14T02:23:12;101519.88;;;4.40;91.74
56392;BME280;76123;53.584;9.978;2024-02-14T02:25:40;101518.16;;;4.41;92.34
56392;BME280;76123;53.584;9.978;2024-02-14T02:28:07;101518.19;;;4.39;92.42
56392;BME280;76123;53.584;9.978;2024-02-14T02:30:34;101511.16;;;4.41;93.17
56392;BME280;76123;53.584;9.978;2024-02-14T02:33:01;101511.19;;;4.38;93.14
56392;BME280;76123;53.584;9.978;2024-02-14T02:35:28;101508.56;;;4.40;93.13
56392;BME280;76123;53.584;9.978;2024-02-14T02:37:55;101504.16;;;4.40;93.83
56392;BME280;76123;53.584;9.978;2024-02-14T02:40:23;101504.19;;;4.39;93.72
56392;BME280;76123;53.584;9.978;2024-02-14T02:42:50;101500.66;;;4.43;93.78
56392;BME280;76123;53.584;9.978;2024-02-14T02:45:17;101496.28;;;4.42;94.34
56392;BME280;76123;53.584;9.978;2024-02-14T02:47:43;101494.56;;;4.41;94.04
56392;BME280;76123;53.584;9.978;2024-02-14T02:50:10;101490.34;;;4.32;93.99
56392;BME280;76123;53.584;9.978;2024-02-14T02:52:37;101481.63;;;4.28;93.87
56392;BME280;76123;53.584;9.978;2024-02-14T02:55:04;101478.22;;;4.22;93.07
56392;BME280;76123;53.584;9.978;2024-02-14T02:57:32;101481.72;;;4.22;93.64
56392;BME280;76123;53.584;9.978;2024-02-14T03:00:02;101488.75;;;4.18;93.52
56392;BME280;76123;53.584;9.978;2024-02-14T03:02:30;101474.00;;;4.13;93.52
56392;BME280;76123;53.584;9.978;2024-02-14T03:04:57;101477.56;;;4.09;92.93
56392;BME280;76123;53.584;9.978;2024-02-14T03:07:24;101474.97;;;4.06;93.07
56392;BME280;76123;53.584;9.978;2024-02-14T03:09:51;101481.91;;;4.08;93.00
56392;BME280;76123;53.584;9.978;2024-02-14T03:12:17;101478.44;;;4.08;93.62
56392;BME280;76123;53.584;9.978;2024-02-14T03:14:46;101475.81;;;4.08;93.62
56392;BME280;76123;53.584;9.978;2024-02-14T03:17:12;101474.03;;;4.10;93.33
56392;BME280;76123;53.584;9.978;2024-02-14T03:19:39;101474.03;;;4.10;93.13
56392;BME280;76123;53.584;9.978;2024-02-14T03:22:06;101470.66;;;4.03;93.00
56392;BME280;76123;53.584;9.978;2024-02-14T03:24:34;101468.00;;;4.06;93.45
56392;BME280;76123;53.584;9.978;2024-02-14T03:27:02;101466.16;;;4.11;93.94
56392;BME280;76123;53.584;9.978;2024-02-14T03:29:31;101463.53;;;4.11;93.61
56392;BME280;76123;53.584;9.978;2024-02-14T03:31:58;101453.94;;;4.12;93.64
56392;BME280;76123;53.584;9.978;2024-02-14T03:34:29;101446.94;;;4.12;93.62
56392;BME280;76123;53.584;9.978;2024-02-14T03:36:58;101441.72;;;4.12;93.91
56392;BME280;76123;53.584;9.978;2024-02-14T03:39:25;101437.38;;;4.10;93.88
56392;BME280;76123;53.584;9.978;2024-02-14T03:41:51;101432.19;;;4.07;93.57
56392;BME280;76123;53.584;9.978;2024-02-14T03:44:18;101427.81;;;4.09;93.82
56392;BME280;76123;53.584;9.978;2024-02-14T03:46:44;101437.28;;;4.14;94.47
56392;BME280;76123;53.584;9.978;2024-02-14T03:49:14;101429.50;;;4.11;94.38
56392;BME280;76123;53.584;9.978;2024-02-14T03:51:40;101433.00;;;4.12;94.04
56392;BME280;76123;53.584;9.978;2024-02-14T03:54:07;101434.69;;;4.13;94.09
56392;BME280;76123;53.584;9.978;2024-02-14T03:56:33;101432.94;;;4.15;94.71
56392;BME280;76123;53.584;9.978;2024-02-14T03:59:01;101423.31;;;4.17;94.38
56392;BME280;76123;53.584;9.978;2024-02-14T04:01:28;101429.41;;;4.19;94.91
56392;BME280;76123;53.584;9.978;2024-02-14T04:03:56;101425.13;;;4.13;94.49
56392;BME280;76123;53.584;9.978;2024-02-14T04:06:24;101421.59;;;4.14;94.93
56392;BME280;76123;53.584;9.978;2024-02-14T04:08:52;101424.38;;;4.04;94.13
56392;BME280;76123;53.584;9.978;2024-02-14T04:11:18;101426.91;;;4.10;94.92
56392;BME280;76123;53.584;9.978;2024-02-14T04:13:45;101426.00;;;4.12;95.00
56392;BME280;76123;53.584;9.978;2024-02-14T04:16:11;101422.53;;;4.10;94.90
56392;BME280;76123;53.584;9.978;2024-02-14T04:18:38;101416.34;;;4.14;95.38
56392;BME280;76123;53.584;9.978;2024-02-14T04:21:07;101413.81;;;4.08;95.05
56392;BME280;76123;53.584;9.978;2024-02-14T04:23:35;101417.31;;;4.10;94.92
56392;BME280;76123;53.584;9.978;2024-02-14T04:26:02;101414.78;;;4.03;94.68
56392;BME280;76123;53.584;9.978;2024-02-14T04:28:28;101413.00;;;4.06;95.39
56392;BME280;76123;53.584;9.978;2024-02-14T04:30:55;101412.03;;;4.12;95.92
56392;BME280;76123;53.584;9.978;2024-02-14T04:33:22;101397.28;;;4.06;95.72
56392;BME280;76123;53.584;9.978;2024-02-14T04:35:48;101397.22;;;4.09;95.33
56392;BME280;76123;53.584;9.978;2024-02-14T04:38:15;101394.66;;;4.08;95.84
56392;BME280;76123;53.584;9.978;2024-02-14T04:40:45;101405.09;;;4.09;96.25
56392;BME280;76123;53.584;9.978;2024-02-14T04:43:11;101397.19;;;4.12;95.47
56392;BME280;76123;53.584;9.978;2024-02-14T04:45:38;101398.03;;;4.13;95.51
56392;BME280;76123;53.584;9.978;2024-02-14T04:48:05;101398.06;;;4.11;95.37
56392;BME280;76123;53.584;9.978;2024-02-14T04:50:33;101384.09;;;4.12;95.38
56392;BME280;76123;53.584;9.978;2024-02-14T04:52:59;101387.59;;;4.11;95.75
56392;BME280;76123;53.584;9.978;2024-02-14T04:55:26;101382.31;;;4.16;95.61
56392;BME280;76123;53.584;9.978;2024-02-14T04:57:54;101375.41;;;4.10;96.09
56392;BME280;76123;53.584;9.978;2024-02-14T05:00:21;101379.72;;;4.13;95.80
56392;BME280;76123;53.584;9.978;2024-02-14T05:02:48;101378.75;;;4.18;95.56
56392;BME280;76123;53.584;9.978;2024-02-14T05:05:15;101368.38;;;4.12;95.39
56392;BME280;76123;53.584;9.978;2024-02-14T05:07:41;101378.06;;;4.09;95.48
56392;BME280;76123;53.584;9.978;2024-02-14T05:10:08;101380.63;;;4.12;95.70
56392;BME280;76123;53.584;9.978;2024-02-14T05:12:35;101365.72;;;4.14;95.70
56392;BME280;76123;53.584;9.978;2024-02-14T05:15:04;101365.75;;;4.12;96.18
56392;BME280;76123;53.584;9.978;2024-02-14T05:17:30;101365.75;;;4.12;95.72
56392;BME280;76123;53.584;9.978;2024-02-14T05:19:57;101365.88;;;4.06;95.96
56392;BME280;76123;53.584;9.978;2024-02-14T05:22:24;101365.78;;;4.11;95.74
56392;BME280;76123;53.584;9.978;2024-02-14T05:24:51;101368.44;;;4.09;96.17
56392;BME280;76123;53.584;9.978;2024-02-14T05:27:17;101367.50;;;4.13;96.51
56392;BME280;76123;53.584;9.978;2024-02-14T05:29:45;101357.91;;;4.12;96.29
56392;BME280;76123;53.584;9.978;2024-02-14T05:32:13;101363.13;;;4.14;96.46
56392;BME280;76123;53.584;9.978;2024-02-14T05:34:39;101365.66;;;4.18;96.52
56392;BME280;76123;53.584;9.978;2024-02-14T05:37:06;101364.75;;;4.21;96.17
56392;BME280;76123;53.584;9.978;2024-02-14T05:39:33;101358.66;;;4.21;96.54
56392;BME280;76123;53.584;9.978;2024-02-14T05:42:00;101351.66;;;4.21;96.82
56392;BME280;76123;53.584;9.978;2024-02-14T05:44:27;101350.75;;;4.24;96.42
56392;BME280;76123;53.584;9.978;2024-02-14T05:46:55;101346.41;;;4.21;96.66
56392;BME280;76123;53.584;9.978;2024-02-14T05:49:23;101347.25;;;4.22;96.21
56392;BME280;76123;53.584;9.978;2024-02-14T05:51:50;101350.72;;;4.25;96.59
56392;BME280;76123;53.584;9.978;2024-02-14T05:54:18;101355.09;;;4.25;96.75
56392;BME280;76123;53.584;9.978;2024-02-14T05:56:45;101353.25;;;4.30;96.19
56392;BME280;76123;53.584;9.978;2024-02-14T05:59:11;101348.88;;;4.32;96.35
56392;BME280;76123;53.584;9.978;2024-02-14T06:01:38;101347.13;;;4.31;96.69
56392;BME280;76123;53.584;9.978;2024-02-14T06:04:04;101343.56;;;4.35;96.67
56392;BME280;76123;53.584;9.978;2024-02-14T06:06:32;101344.41;;;4.37;96.54
56392;BME280;76123;53.584;9.978;2024-02-14T06:08:59;101340.84;;;4.41;96.86
56392;BME280;76123;53.584;9.978;2024-02-14T06:11:25;101340.00;;;4.38;96.75
56392;BME280;76123;53.584;9.978;2024-02-14T06:13:52;101336.47;;;4.42;96.49
56392;BME280;76123;53.584;9.978;2024-02-14T06:16:18;101336.59;;;4.34;96.45
56392;BME280;76123;53.584;9.978;2024-02-14T06:18:45;101334.75;;;4.41;96.90
56392;BME280;76123;53.584;9.978;2024-02-14T06:21:11;101328.56;;;4.43;96.73
56392;BME280;76123;53.584;9.978;2024-02-14T06:23:39;101330.22;;;4.49;96.67
56392;BME280;76123;53.584;9.978;2024-02-14T06:26:07;101332.00;;;4.47;96.50
56392;BME280;76123;53.584;9.978;2024-02-14T06:28:33;101325.00;;;4.47;96.27
56392;BME280;76123;53.584;9.978;2024-02-14T06:31:00;101323.25;;;4.49;96.61
56392;BME280;76123;53.584;9.978;2024-02-14T06:33:26;101327.66;;;4.46;96.44
56392;BME280;76123;53.584;9.978;2024-02-14T06:35:53;101331.03;;;4.52;96.72
56392;BME280;76123;53.584;9.978;2024-02-14T06:38:20;101328.38;;;4.56;96.74
56392;BME280;76123;53.584;9.978;2024-02-14T06:40:49;101332.75;;;4.55;96.61
56392;BME280;76123;53.584;9.978;2024-02-14T06:43:15;101332.78;;;4.54;96.83
56392;BME280;76123;53.584;9.978;2024-02-14T06:45:42;101332.72;;;4.57;96.62
56392;BME280;76123;53.584;9.978;2024-02-14T06:48:09;101337.03;;;4.59;96.38
56392;BME280;76123;53.584;9.978;2024-02-14T06:50:35;101332.63;;;4.61;96.35
56392;BME280;76123;53.584;9.978;2024-02-14T06:53:02;101324.75;;;4.63;96.86
56392;BME280;76123;53.584;9.978;2024-02-14T06:55:28;101322.16;;;4.61;96.51
56392;BME280;76123;53.584;9.978;2024-02-14T06:57:58;101325.63;;;4.62;96.58
56392;BME280;76123;53.584;9.978;2024-02-14T07:00:25;101326.41;;;4.67;96.79
56392;BME280;76123;53.584;9.978;2024-02-14T07:02:53;101326.38;;;4.68;96.67
56392;BME280;76123;53.584;9.978;2024-02-14T07:05:20;101327.22;;;4.70;96.62
56392;BME280;76123;53.584;9.978;2024-02-14T07:07:46;101326.25;;;4.75;97.14
56392;BME280;76123;53.584;9.978;2024-02-14T07:10:13;101328.00;;;4.76;97.00
56392;BME280;76123;53.584;9.978;2024-02-14T07:12:39;101327.13;;;4.77;96.84
56392;BME280;76123;53.584;9.978;2024-02-14T07:15:07;101319.25;;;4.77;96.67
56392;BME280;76123;53.584;9.978;2024-02-14T07:17:34;101324.41;;;4.81;96.90
56392;BME280;76123;53.584;9.978;2024-02-14T07:20:01;101320.94;;;4.79;97.13
56392;BME280;76123;53.584;9.978;2024-02-14T07:22:28;101323.53;;;4.81;96.91
56392;BME280;76123;53.584;9.978;2024-02-14T07:24:55;101327.78;;;4.86;96.72
56392;BME280;76123;53.584;9.978;2024-02-14T07:27:22;101327.72;;;4.90;96.77
56392;BME280;76123;53.584;9.978;2024-02-14T07:29:49;101328.53;;;4.93;96.80
56392;BME280;76123;53.584;9.978;2024-02-14T07:32:17;101335.47;;;4.97;96.99
56392;BME280;76123;53.584;9.978;2024-02-14T07:34:44;101330.25;;;4.96;96.86
56392;BME280;76123;53.584;9.978;2024-02-14T07:37:11;101331.97;;;4.95;96.55
56392;BME280;76123;53.584;9.978;2024-02-14T07:39:40;101327.53;;;5.00;96.78
56392;BME280;76123;53.584;9.978;2024-02-14T07:42:06;101331.88;;;5.01;96.74
56392;BME280;76123;53.584;9.978;2024-02-14T07:44:35;101329.22;;;5.03;96.63
56392;BME280;76123;53.584;9.978;2024-02-14T07:47:02;101326.59;;;5.03;96.65
56392;BME280;76123;53.584;9.978;2024-02-14T07:49:30;101330.06;;;5.05;96.60
56392;BME280;76123;53.584;9.978;2024-02-14T07:51:57;101331.75;;;5.08;96.62
56392;BME280;76123;53.584;9.978;2024-02-14T07:54:23;101324.66;;;5.11;96.71
56392;BME280;76123;53.584;9.978;2024-02-14T07:56:50;101320.25;;;5.15;96.80
56392;BME280;76123;53.584;9.978;2024-02-14T07:59:16;101317.53;;;5.19;96.75
56392;BME280;76123;53.584;9.978;2024-02-14T08:01:43;101315.78;;;5.20;96.67
56392;BME280;76123;53.584;9.978;2024-02-14T08:04:09;101321.00;;;5.21;96.54
56392;BME280;76123;53.584;9.978;2024-02-14T08:06:37;101324.47;;;5.22;96.44
56392;BME280;76123;53.584;9.978;2024-02-14T08:09:04;101318.31;;;5.25;96.51
56392;BME280;76123;53.584;9.978;2024-02-14T08:11:35;101319.16;;;5.25;96.43
56392;BME280;76123;53.584;9.978;2024-02-14T08:14:01;101320.78;;;5.31;96.40
56392;BME280;76123;53.584;9.978;2024-02-14T08:16:28;101315.59;;;5.28;96.33
56392;BME280;76123;53.584;9.978;2024-02-14T08:18:55;101329.44;;;5.34;96.32
56392;BME280;76123;53.584;9.978;2024-02-14T08:21:24;101318.91;;;5.37;96.70
56392;BME280;76123;53.584;9.978;2024-02-14T08:23:52;101318.81;;;5.42;96.94
56392;BME280;76123;53.584;9.978;2024-02-14T08:26:19;101321.38;;;5.44;96.34
56392;BME280;76123;53.584;9.978;2024-02-14T08:28:46;101315.25;;;5.45;96.16
56392;BME280;76123;53.584;9.978;2024-02-14T08:31:13;101317.84;;;5.46;96.58
56392;BME280;76123;53.584;9.978;2024-02-14T08:33:40;101316.84;;;5.52;96.65
56392;BME280;76123;53.584;9.978;2024-02-14T08:36:07;101316.75;;;5.56;96.21
56392;BME280;76123;53.584;9.978;2024-02-14T08:38:33;101319.22;;;5.63;96.48
56392;BME280;76123;53.584;9.978;2024-02-14T08:41:02;101312.22;;;5.62;96.67
56392;BME280;76123;53.584;9.978;2024-02-14T08:43:28;101314.88;;;5.60;96.59
56392;BME280;76123;53.584;9.978;2024-02-14T08:45:55;101320.88;;;5.67;96.31
56392;BME280;76123;53.584;9.978;2024-02-14T08:48:22;101319.03;;;5.70;96.47
56392;BME280;76123;53.584;9.978;2024-02-14T08:50:49;101309.31;;;5.76;96.94
56392;BME280;76123;53.584;9.978;2024-02-14T08:53:16;101318.00;;;5.79;96.53
56392;BME280;76123;53.584;9.978;2024-02-14T08:55:42;101321.44;;;5.81;96.78
56392;BME280;76123;53.584;9.978;2024-02-14T08:58:10;101322.16;;;5.86;96.70
56392;BME280;76123;53.584;9.978;2024-02-14T09:00:37;101316.91;;;5.88;96.49
56392;BME280;76123;53.584;9.978;2024-02-14T09:03:04;101315.94;;;5.90;96.02
56392;BME280;76123;53.584;9.978;2024-02-14T09:05:31;101324.66;;;5.93;96.87
56392;BME280;76123;53.584;9.978;2024-02-14T09:07:58;101321.06;;;5.97;96.74
56392;BME280;76123;53.584;9.978;2024-02-14T09:10:25;101319.34;;;5.97;96.51
56392;BME280;76123;53.584;9.978;2024-02-14T09:12:52;101324.50;;;6.00;96.73
56392;BME280;76123;53.584;9.978;2024-02-14T09:15:20;101324.38;;;6.05;96.84
56392;BME280;76123;53.584;9.978;2024-02-14T09:17:48;101329.59;;;6.06;96.96
56392;BME280;76123;53.584;9.978;2024-02-14T09:20:14;101325.13;;;6.12;96.81
56392;BME280;76123;53.584;9.978;2024-02-14T09:22:41;101324.06;;;6.19;97.46
56392;BME280;76123;53.584;9.978;2024-02-14T09:25:08;101322.31;;;6.18;96.72
56392;BME280;76123;53.584;9.978;2024-02-14T09:27:35;101323.06;;;6.24;96.71
56392;BME280;76123;53.584;9.978;2024-02-14T09:30:02;101322.03;;;6.30;96.44
56392;BME280;76123;53.584;9.978;2024-02-14T09:32:31;101329.81;;;6.35;96.67
56392;BME280;76123;53.584;9.978;2024-02-14T09:34:58;101332.19;;;6.44;96.85
56392;BME280;76123;53.584;9.978;2024-02-14T09:37:25;101320.81;;;6.43;96.35
56392;BME280;76123;53.584;9.978;2024-02-14T09:39:51;101329.38;;;6.52;96.30
56392;BME280;76123;53.584;9.978;2024-02-14T09:42:23;101326.53;;;6.59;96.26
56392;BME280;76123;53.584;9.978;2024-02-14T09:44:54;101320.38;;;6.60;96.01
56392;BME280;76123;53.584;9.978;2024-02-14T09:47:25;101327.19;;;6.68;96.31
56392;BME280;76123;53.584;9.978;2024-02-14T09:49:57;101334.84;;;6.77;95.91
56392;BME280;76123;53.584;9.978;2024-02-14T09:52:23;101331.22;;;6.81;96.62
56392;BME280;76123;53.584;9.978;2024-02-14T09:54:52;101332.81;;;6.87;96.30
56392;BME280;76123;53.584;9.978;2024-02-14T09:57:19;101328.22;;;6.95;96.40
56392;BME280;76123;53.584;9.978;2024-02-14T09:59:47;101325.53;;;6.97;96.57
56392;BME280;76123;53.584;9.978;2024-02-14T10:02:14;101335.00;;;7.04;96.82
56392;BME280;76123;53.584;9.978;2024-02-14T10:08:34;101342.56;;;7.15;97.04
56392;BME280;76123;53.584;9.978;2024-02-14T10:11:00;101329.13;;;7.25;96.79
56392;BME280;76123;53.584;9.978;2024-02-14T10:13:29;101336.13;;;7.25;96.02
56392;BME280;76123;53.584;9.978;2024-02-14T10:15:57;101339.63;;;7.25;96.39
56392;BME280;76123;53.584;9.978;2024-02-14T10:18:23;101336.13;;;7.25;96.34
56392;BME280;76123;53.584;9.978;2024-02-14T10:20:55;101337.75;;;7.29;96.36
56392;BME280;76123;53.584;9.978;2024-02-14T10:23:22;101347.31;;;7.33;96.60
56392;BME280;76123;53.584;9.978;2024-02-14T10:25:50;101347.16;;;7.38;97.04
56392;BME280;76123;53.584;9.978;2024-02-14T10:28:17;101347.94;;;7.41;96.64
56392;BME280;76123;53.584;9.978;2024-02-14T10:30:45;101342.41;;;7.51;96.44
56392;BME280;76123;53.584;9.978;2024-02-14T10:33:12;101353.75;;;7.53;97.14
56392;BME280;76123;53.584;9.978;2024-02-14T10:35:38;101344.94;;;7.54;97.23
56392;BME280;76123;53.584;9.978;2024-02-14T10:38:07;101351.94;;;7.55;96.82
56392;BME280;76123;53.584;9.978;2024-02-14T10:40:34;101351.03;;;7.56;96.88
56392;BME280;76123;53.584;9.978;2024-02-14T10:43:03;101357.00;;;7.61;96.99
56392;BME280;76123;53.584;9.978;2024-02-14T10:45:29;101356.75;;;7.70;97.07
56392;BME280;76123;53.584;9.978;2024-02-14T10:47:57;101349.56;;;7.75;97.12
56392;BME280;76123;53.584;9.978;2024-02-14T10:50:27;101359.09;;;7.79;96.54
56392;BME280;76123;53.584;9.978;2024-02-14T10:52:57;101364.16;;;7.86;97.04
56392;BME280;76123;53.584;9.978;2024-02-14T10:55:28;101358.66;;;7.93;96.94
56392;BME280;76123;53.584;9.978;2024-02-14T10:57:57;101353.19;;;7.99;97.06
56392;BME280;76123;53.584;9.978;2024-02-14T11:00:25;101355.88;;;7.98;96.40
56392;BME280;76123;53.584;9.978;2024-02-14T11:02:52;101360.03;;;8.05;96.76
56392;BME280;76123;53.584;9.978;2024-02-14T11:05:19;101354.78;;;8.05;96.35
56392;BME280;76123;53.584;9.978;2024-02-14T11:07:49;101364.22;;;8.12;96.51
56392;BME280;76123;53.584;9.978;2024-02-14T11:10:17;101358.84;;;8.15;96.87
56392;BME280;76123;53.584;9.978;2024-02-14T11:12:46;101361.47;;;8.15;96.73
56392;BME280;76123;53.584;9.978;2024-02-14T11:15:17;101359.66;;;8.17;96.48
56392;BME280;76123;53.584;9.978;2024-02-14T11:17:45;101359.66;;;8.17;96.51
56392;BME280;76123;53.584;9.978;2024-02-14T11:20:17;101362.94;;;8.24;96.53
56392;BME280;76123;53.584;9.978;2024-02-14T11:22:53;101358.41;;;8.29;96.92
56392;BME280;76123;53.584;9.978;2024-02-14T11:25:23;101365.34;;;8.32;97.00
56392;BME280;76123;53.584;9.978;2024-02-14T11:27:55;101363.41;;;8.37;96.55
56392;BME280;76123;53.584;9.978;2024-02-14T11:30:31;101366.03;;;8.37;96.52
56392;BME280;76123;53.584;9.978;2024-02-14T11:33:15;101365.88;;;8.42;96.53
56392;BME280;76123;53.584;9.978;2024-02-14T11:35:43;101364.84;;;8.47;96.92
56392;BME280;76123;53.584;9.978;2024-02-14T11:38:10;101364.84;;;8.47;97.01
56392;BME280;76123;53.584;9.978;2024-02-14T11:40:37;101368.31;;;8.49;96.95
56392;BME280;76123;53.584;9.978;2024-02-14T11:43:04;101367.31;;;8.52;96.81
56392;BME280;76123;53.584;9.978;2024-02-14T11:45:31;101374.03;;;8.62;96.74
56392;BME280;76123;53.584;9.978;2024-02-14T11:47:58;101371.44;;;8.61;97.18
56392;BME280;76123;53.584;9.978;2024-02-14T11:50:26;101373.06;;;8.65;96.79
56392;BME280;76123;53.584;9.978;2024-02-14T11:52:54;101385.16;;;8.71;97.05
56392;BME280;76123;53.584;9.978;2024-02-14T11:55:27;101376.19;;;8.76;96.89
56392;BME280;76123;53.584;9.978;2024-02-14T11:57:57;101379.66;;;8.78;97.19
56392;BME280;76123;53.584;9.978;2024-02-14T12:00:50;101376.91;;;8.81;97.15
56392;BME280;76123;53.584;9.978;2024-02-14T12:03:18;101377.00;;;8.78;96.73
56392;BME280;76123;53.584;9.978;2024-02-14T12:05:47;101378.66;;;8.81;96.94
56392;BME280;76123;53.584;9.978;2024-02-14T12:08:14;101379.72;;;8.77;96.65
56392;BME280;76123;53.584;9.978;2024-02-14T12:10:42;101380.56;;;8.77;96.91
56392;BME280;76123;53.584;9.978;2024-02-14T12:13:13;101379.59;;;8.80;96.85
56392;BME280;76123;53.584;9.978;2024-02-14T12:15:40;101377.75;;;8.82;96.92
56392;BME280;76123;53.584;9.978;2024-02-14T12:18:08;101385.31;;;8.93;97.16
56392;BME280;76123;53.584;9.978;2024-02-14T12:20:35;101390.53;;;8.94;96.92
56392;BME280;76123;53.584;9.978;2024-02-14T12:23:04;101377.22;;;8.97;96.83
56392;BME280;76123;53.584;9.978;2024-02-14T12:25:32;101389.34;;;9.03;96.88
56392;BME280;76123;53.584;9.978;2024-02-14T12:27:59;101386.69;;;9.03;96.79
56392;BME280;76123;53.584;9.978;2024-02-14T12:30:42;101387.38;;;9.08;96.86
56392;BME280;76123;53.584;9.978;2024-02-14T12:33:10;101384.63;;;9.11;96.91
56392;BME280;76123;53.584;9.978;2024-02-14T12:35:37;101389.00;;;9.12;96.99
56392;BME280;76123;53.584;9.978;2024-02-14T12:38:08;101388.94;;;9.14;96.82
56392;BME280;76123;53.584;9.978;2024-02-14T12:40:35;101395.09;;;9.14;96.55
56392;BME280;76123;53.584;9.978;2024-02-14T12:43:02;101393.03;;;9.23;96.93
56392;BME280;76123;53.584;9.978;2024-02-14T12:45:31;101396.44;;;9.26;96.78
56392;BME280;76123;53.584;9.978;2024-02-14T12:47:58;101402.50;;;9.28;96.73
56392;BME280;76123;53.584;9.978;2024-02-14T12:50:24;101402.63;;;9.25;96.75
56392;BME280;76123;53.584;9.978;2024-02-14T12:53:00;101403.41;;;9.27;96.76
56392;BME280;76123;53.584;9.978;2024-02-14T12:55:28;101403.47;;;9.26;96.84
56392;BME280;76123;53.584;9.978;2024-02-14T12:57:55;101402.75;;;9.22;97.06
56392;BME280;76123;53.584;9.978;2024-02-14T13:00:22;101395.78;;;9.19;97.04
56392;BME280;76123;53.584;9.978;2024-02-14T13:02:49;101406.28;;;9.21;97.16
56392;BME280;76123;53.584;9.978;2024-02-14T13:05:16;101400.94;;;9.23;97.17